sensor_id;sensor_type;location;lat;lon;timestamp;P1;P2;P0
65556;PMS3003;52200;53.490;14.376;2023-04-24T00:00:15;39.00;33.00;18.25
65556;PMS3003;52200;53.490;14.376;2023-04-24T00:02:42;41.80;31.80;18.80
65556;PMS3003;52200;53.490;14.376;2023-04-24T00:05:12;30.00;24.80;16.60
65556;PMS3003;52200;53.490;14.376;2023-04-24T00:07:40;37.80;32.60;19.00
65556;PMS3003;52200;53.490;14.376;2023-04-24T00:10:09;38.60;33.00;16.80
65556;PMS3003;52200;53.490;14.376;2023-04-24T00:12:35;39.25;32.00;19.00
65556;PMS3003;52200;53.490;14.376;2023-04-24T00:15:01;40.20;32.60;19.00
65556;PMS3003;52200;53.490;14.376;2023-04-24T00:17:27;35.60;27.00;16.00
65556;PMS3003;52200;53.490;14.376;2023-04-24T00:19:53;35.00;27.50;17.75
65556;PMS3003;52200;53.490;14.376;2023-04-24T00:22:27;32.60;24.40;14.40
65556;PMS3003;52200;53.490;14.376;2023-04-24T00:24:53;36.00;27.80;17.00
65556;PMS3003;52200;53.490;14.376;2023-04-24T00:27:19;37.20;30.80;15.20
65556;PMS3003;52200;53.490;14.376;2023-04-24T00:29:45;34.50;27.50;16.75
65556;PMS3003;52200;53.490;14.376;2023-04-24T00:32:10;32.50;24.25;14.00
65556;PMS3003;52200;53.490;14.376;2023-04-24T00:34:36;47.00;30.75;16.75
65556;PMS3003;52200;53.490;14.376;2023-04-24T00:37:01;36.00;25.25;16.00
65556;PMS3003;52200;53.490;14.376;2023-04-24T00:39:27;36.00;27.25;13.75
65556;PMS3003;52200;53.490;14.376;2023-04-24T00:41:52;33.00;26.75;15.50
65556;PMS3003;52200;53.490;14.376;2023-04-24T00:44:18;32.50;23.50;13.00
65556;PMS3003;52200;53.490;14.376;2023-04-24T00:46:44;28.00;23.40;14.20
65556;PMS3003;52200;53.490;14.376;2023-04-24T00:49:11;28.00;22.60;14.80
65556;PMS3003;52200;53.490;14.376;2023-04-24T00:51:37;34.40;27.20;15.20
65556;PMS3003;52200;53.490;14.376;2023-04-24T00:54:02;33.75;26.75;16.00
65556;PMS3003;52200;53.490;14.376;2023-04-24T00:56:28;26.50;22.25;16.00
65556;PMS3003;52200;53.490;14.376;2023-04-24T00:58:54;37.00;27.20;16.80
65556;PMS3003;52200;53.490;14.376;2023-04-24T01:01:20;28.60;23.00;13.40
65556;PMS3003;52200;53.490;14.376;2023-04-24T01:03:47;30.80;25.40;13.80
65556;PMS3003;52200;53.490;14.376;2023-04-24T01:06:15;29.60;23.80;14.80
65556;PMS3003;52200;53.490;14.376;2023-04-24T01:08:43;33.20;26.60;14.60
65556;PMS3003;52200;53.490;14.376;2023-04-24T01:11:11;30.00;23.80;13.40
65556;PMS3003;52200;53.490;14.376;2023-04-24T01:13:37;30.25;25.75;14.00
65556;PMS3003;52200;53.490;14.376;2023-04-24T01:16:02;32.50;28.00;16.25
65556;PMS3003;52200;53.490;14.376;2023-04-24T01:18:28;31.25;24.00;14.25
65556;PMS3003;52200;53.490;14.376;2023-04-24T01:20:54;33.50;22.50;13.25
65556;PMS3003;52200;53.490;14.376;2023-04-24T01:23:23;27.40;22.00;12.60
65556;PMS3003;52200;53.490;14.376;2023-04-24T01:25:49;27.50;23.25;12.75
65556;PMS3003;52200;53.490;14.376;2023-04-24T01:28:16;33.60;24.40;12.80
65556;PMS3003;52200;53.490;14.376;2023-04-24T01:30:42;32.20;25.20;14.40
65556;PMS3003;52200;53.490;14.376;2023-04-24T01:33:07;29.50;23.25;13.00
65556;PMS3003;52200;53.490;14.376;2023-04-24T01:35:33;27.25;21.50;12.75
65556;PMS3003;52200;53.490;14.376;2023-04-24T01:38:01;28.00;22.00;14.40
65556;PMS3003;52200;53.490;14.376;2023-04-24T01:40:26;29.50;23.75;12.75
65556;PMS3003;52200;53.490;14.376;2023-04-24T01:42:52;28.00;22.00;13.00
65556;PMS3003;52200;53.490;14.376;2023-04-24T01:45:17;30.00;25.00;13.00
65556;PMS3003;52200;53.490;14.376;2023-04-24T01:47:43;33.00;23.50;12.50
65556;PMS3003;52200;53.490;14.376;2023-04-24T01:50:10;27.80;21.80;13.80
65556;PMS3003;52200;53.490;14.376;2023-04-24T01:52:36;30.80;25.20;14.60
65556;PMS3003;52200;53.490;14.376;2023-04-24T01:55:02;29.50;22.25;13.00
65556;PMS3003;52200;53.490;14.376;2023-04-24T01:57:29;26.40;22.60;12.40
65556;PMS3003;52200;53.490;14.376;2023-04-24T01:59:55;28.80;24.40;13.80
65556;PMS3003;52200;53.490;14.376;2023-04-24T02:02:21;26.50;21.25;12.00
65556;PMS3003;52200;53.490;14.376;2023-04-24T02:04:48;21.60;18.00;12.00
65556;PMS3003;52200;53.490;14.376;2023-04-24T02:07:17;30.20;21.40;12.00
65556;PMS3003;52200;53.490;14.376;2023-04-24T02:09:42;29.75;24.00;15.00
65556;PMS3003;52200;53.490;14.376;2023-04-24T02:12:07;25.75;20.75;12.00
65556;PMS3003;52200;53.490;14.376;2023-04-24T02:14:33;29.50;23.00;11.75
65556;PMS3003;52200;53.490;14.376;2023-04-24T02:16:58;28.50;21.00;12.00
65556;PMS3003;52200;53.490;14.376;2023-04-24T02:19:24;25.75;19.75;11.50
65556;PMS3003;52200;53.490;14.376;2023-04-24T02:21:49;27.75;20.25;14.25
65556;PMS3003;52200;53.490;14.376;2023-04-24T02:24:15;25.50;19.50;11.00
65556;PMS3003;52200;53.490;14.376;2023-04-24T02:26:41;28.25;19.00;11.00
65556;PMS3003;52200;53.490;14.376;2023-04-24T02:29:06;25.50;17.00;10.50
65556;PMS3003;52200;53.490;14.376;2023-04-24T02:31:31;24.50;19.75;11.00
65556;PMS3003;52200;53.490;14.376;2023-04-24T02:33:57;23.25;17.00;11.75
65556;PMS3003;52200;53.490;14.376;2023-04-24T02:36:22;27.50;22.00;12.00
65556;PMS3003;52200;53.490;14.376;2023-04-24T02:38:48;26.50;21.00;12.00
65556;PMS3003;52200;53.490;14.376;2023-04-24T02:41:13;27.50;20.50;12.00
65556;PMS3003;52200;53.490;14.376;2023-04-24T02:43:38;24.00;17.75;10.50
65556;PMS3003;52200;53.490;14.376;2023-04-24T02:46:04;27.25;22.25;12.75
65556;PMS3003;52200;53.490;14.376;2023-04-24T02:48:29;24.25;19.50;11.00
65556;PMS3003;52200;53.490;14.376;2023-04-24T02:50:55;29.25;21.50;13.00
65556;PMS3003;52200;53.490;14.376;2023-04-24T02:53:20;27.50;21.25;11.25
65556;PMS3003;52200;53.490;14.376;2023-04-24T02:55:46;25.50;20.75;11.00
65556;PMS3003;52200;53.490;14.376;2023-04-24T02:58:11;29.00;22.25;12.00
65556;PMS3003;52200;53.490;14.376;2023-04-24T03:00:38;26.20;19.80;11.00
65556;PMS3003;52200;53.490;14.376;2023-04-24T03:03:04;24.20;16.80;11.60
65556;PMS3003;52200;53.490;14.376;2023-04-24T03:05:30;28.20;22.00;12.00
65556;PMS3003;52200;53.490;14.376;2023-04-24T03:07:56;34.25;26.00;13.00
65556;PMS3003;52200;53.490;14.376;2023-04-24T03:10:21;26.00;21.00;12.00
65556;PMS3003;52200;53.490;14.376;2023-04-24T03:12:50;26.80;21.00;12.60
65556;PMS3003;52200;53.490;14.376;2023-04-24T03:15:16;27.50;23.00;13.00
65556;PMS3003;52200;53.490;14.376;2023-04-24T03:17:41;31.25;25.00;14.00
65556;PMS3003;52200;53.490;14.376;2023-04-24T03:20:07;30.75;22.75;12.50
65556;PMS3003;52200;53.490;14.376;2023-04-24T03:22:33;29.60;23.40;14.40
65556;PMS3003;52200;53.490;14.376;2023-04-24T03:24:59;34.00;27.00;16.00
65556;PMS3003;52200;53.490;14.376;2023-04-24T03:27:24;34.00;27.75;17.25
65556;PMS3003;52200;53.490;14.376;2023-04-24T03:29:50;36.00;28.50;17.75
65556;PMS3003;52200;53.490;14.376;2023-04-24T03:32:20;60.20;47.80;27.00
65556;PMS3003;52200;53.490;14.376;2023-04-24T03:34:45;64.00;48.25;28.00
65556;PMS3003;52200;53.490;14.376;2023-04-24T03:37:11;64.50;48.75;28.00
65556;PMS3003;52200;53.490;14.376;2023-04-24T03:39:36;56.75;45.00;26.00
65556;PMS3003;52200;53.490;14.376;2023-04-24T03:42:01;52.50;40.50;25.00
65556;PMS3003;52200;53.490;14.376;2023-04-24T03:44:28;54.60;41.20;24.60
65556;PMS3003;52200;53.490;14.376;2023-04-24T03:46:53;45.25;36.25;21.50
65556;PMS3003;52200;53.490;14.376;2023-04-24T03:49:18;34.25;29.25;18.75
65556;PMS3003;52200;53.490;14.376;2023-04-24T03:51:44;39.00;28.25;15.75
65556;PMS3003;52200;53.490;14.376;2023-04-24T03:54:09;37.25;32.00;16.00
65556;PMS3003;52200;53.490;14.376;2023-04-24T03:56:35;33.00;28.00;16.00
65556;PMS3003;52200;53.490;14.376;2023-04-24T03:59:00;28.00;23.75;15.00
65556;PMS3003;52200;53.490;14.376;2023-04-24T04:01:26;29.25;25.50;15.00
65556;PMS3003;52200;53.490;14.376;2023-04-24T04:03:53;31.00;24.20;15.00
65556;PMS3003;52200;53.490;14.376;2023-04-24T04:06:18;30.00;26.75;16.00
65556;PMS3003;52200;53.490;14.376;2023-04-24T04:08:44;35.00;27.50;17.00
65556;PMS3003;52200;53.490;14.376;2023-04-24T04:11:09;29.75;24.00;15.75
65556;PMS3003;52200;53.490;14.376;2023-04-24T04:13:35;30.75;24.75;15.00
65556;PMS3003;52200;53.490;14.376;2023-04-24T04:16:01;30.50;25.00;15.00
65556;PMS3003;52200;53.490;14.376;2023-04-24T04:18:26;35.50;28.50;15.75
65556;PMS3003;52200;53.490;14.376;2023-04-24T04:20:52;30.75;23.50;16.00
65556;PMS3003;52200;53.490;14.376;2023-04-24T04:23:17;32.75;24.50;15.00
65556;PMS3003;52200;53.490;14.376;2023-04-24T04:25:42;34.50;26.50;15.75
65556;PMS3003;52200;53.490;14.376;2023-04-24T04:28:08;29.00;25.25;16.00
65556;PMS3003;52200;53.490;14.376;2023-04-24T04:30:33;35.00;28.00;15.50
65556;PMS3003;52200;53.490;14.376;2023-04-24T04:32:59;35.00;28.00;17.00
65556;PMS3003;52200;53.490;14.376;2023-04-24T04:35:25;33.00;28.20;15.80
65556;PMS3003;52200;53.490;14.376;2023-04-24T04:37:50;38.75;31.75;17.00
65556;PMS3003;52200;53.490;14.376;2023-04-24T04:40:16;35.75;26.75;16.75
65556;PMS3003;52200;53.490;14.376;2023-04-24T04:42:42;37.80;33.80;19.80
65556;PMS3003;52200;53.490;14.376;2023-04-24T04:45:11;39.60;31.80;18.80
65556;PMS3003;52200;53.490;14.376;2023-04-24T04:47:36;38.20;33.00;18.60
65556;PMS3003;52200;53.490;14.376;2023-04-24T04:50:02;34.00;28.80;19.00
65556;PMS3003;52200;53.490;14.376;2023-04-24T04:52:29;39.80;33.20;20.60
65556;PMS3003;52200;53.490;14.376;2023-04-24T04:54:54;36.60;31.60;20.00
65556;PMS3003;52200;53.490;14.376;2023-04-24T04:57:20;36.75;31.00;17.50
65556;PMS3003;52200;53.490;14.376;2023-04-24T04:59:46;36.25;28.00;18.00
65556;PMS3003;52200;53.490;14.376;2023-04-24T05:02:11;35.75;30.00;18.00
65556;PMS3003;52200;53.490;14.376;2023-04-24T05:04:37;34.50;30.50;18.50
65556;PMS3003;52200;53.490;14.376;2023-04-24T05:07:02;34.50;28.25;19.00
65556;PMS3003;52200;53.490;14.376;2023-04-24T05:09:28;38.25;33.00;18.25
65556;PMS3003;52200;53.490;14.376;2023-04-24T05:11:54;35.20;28.80;18.00
65556;PMS3003;52200;53.490;14.376;2023-04-24T05:14:21;39.60;33.00;20.00
65556;PMS3003;52200;53.490;14.376;2023-04-24T05:16:47;36.80;32.40;19.00
65556;PMS3003;52200;53.490;14.376;2023-04-24T05:19:12;35.50;30.50;19.50
65556;PMS3003;52200;53.490;14.376;2023-04-24T05:21:39;34.00;28.00;17.60
65556;PMS3003;52200;53.490;14.376;2023-04-24T05:24:05;35.00;29.40;19.00
65556;PMS3003;52200;53.490;14.376;2023-04-24T05:26:31;37.80;31.00;18.80
65556;PMS3003;52200;53.490;14.376;2023-04-24T05:28:56;34.25;30.00;19.00
65556;PMS3003;52200;53.490;14.376;2023-04-24T05:31:22;37.50;30.50;19.00
65556;PMS3003;52200;53.490;14.376;2023-04-24T05:33:47;38.75;32.75;20.25
65556;PMS3003;52200;53.490;14.376;2023-04-24T05:36:13;39.50;33.25;21.00
65556;PMS3003;52200;53.490;14.376;2023-04-24T05:38:38;35.50;30.75;20.00
65556;PMS3003;52200;53.490;14.376;2023-04-24T05:41:04;39.75;32.00;19.50
65556;PMS3003;52200;53.490;14.376;2023-04-24T05:43:29;36.00;31.00;20.00
65556;PMS3003;52200;53.490;14.376;2023-04-24T05:45:55;34.50;29.75;18.75
65556;PMS3003;52200;53.490;14.376;2023-04-24T05:48:20;36.50;30.50;18.25
65556;PMS3003;52200;53.490;14.376;2023-04-24T05:50:47;38.00;30.80;20.00
65556;PMS3003;52200;53.490;14.376;2023-04-24T05:53:13;35.50;31.50;20.00
65556;PMS3003;52200;53.490;14.376;2023-04-24T05:55:38;39.50;33.00;20.75
65556;PMS3003;52200;53.490;14.376;2023-04-24T05:58:04;38.50;33.50;20.75
65556;PMS3003;52200;53.490;14.376;2023-04-24T06:00:29;37.00;31.25;18.50
65556;PMS3003;52200;53.490;14.376;2023-04-24T06:02:55;33.75;29.50;20.25
65556;PMS3003;52200;53.490;14.376;2023-04-24T06:05:21;35.25;29.50;18.50
65556;PMS3003;52200;53.490;14.376;2023-04-24T06:07:47;37.75;29.50;17.50
65556;PMS3003;52200;53.490;14.376;2023-04-24T06:10:13;39.60;31.00;20.00
65556;PMS3003;52200;53.490;14.376;2023-04-24T06:12:38;36.80;30.00;19.40
65556;PMS3003;52200;53.490;14.376;2023-04-24T06:15:04;33.00;28.00;17.75
65556;PMS3003;52200;53.490;14.376;2023-04-24T06:17:30;36.40;30.20;19.40
65556;PMS3003;52200;53.490;14.376;2023-04-24T06:19:57;39.60;33.60;19.20
65556;PMS3003;52200;53.490;14.376;2023-04-24T06:22:22;36.25;30.75;18.00
65556;PMS3003;52200;53.490;14.376;2023-04-24T06:24:47;38.25;30.00;20.00
65556;PMS3003;52200;53.490;14.376;2023-04-24T06:27:13;37.50;31.25;19.75
65556;PMS3003;52200;53.490;14.376;2023-04-24T06:29:39;40.75;35.00;21.00
65556;PMS3003;52200;53.490;14.376;2023-04-24T06:32:04;36.00;32.00;17.00
65556;PMS3003;52200;53.490;14.376;2023-04-24T06:34:30;40.75;33.25;21.00
65556;PMS3003;52200;53.490;14.376;2023-04-24T06:36:57;39.20;31.80;17.40
65556;PMS3003;52200;53.490;14.376;2023-04-24T06:39:23;33.75;28.75;18.00
65556;PMS3003;52200;53.490;14.376;2023-04-24T06:41:48;34.00;29.00;18.00
65556;PMS3003;52200;53.490;14.376;2023-04-24T06:44:14;33.50;27.25;16.00
65556;PMS3003;52200;53.490;14.376;2023-04-24T06:46:40;29.00;27.40;15.60
65556;PMS3003;52200;53.490;14.376;2023-04-24T06:49:06;29.80;25.80;17.00
65556;PMS3003;52200;53.490;14.376;2023-04-24T06:51:31;28.75;24.75;16.00
65556;PMS3003;52200;53.490;14.376;2023-04-24T06:53:58;28.20;23.20;14.60
65556;PMS3003;52200;53.490;14.376;2023-04-24T06:56:23;29.00;23.00;12.50
65556;PMS3003;52200;53.490;14.376;2023-04-24T06:58:50;28.60;23.80;15.00
65556;PMS3003;52200;53.490;14.376;2023-04-24T07:01:16;23.60;21.00;13.20
65556;PMS3003;52200;53.490;14.376;2023-04-24T07:03:41;28.00;24.50;14.50
65556;PMS3003;52200;53.490;14.376;2023-04-24T07:06:07;26.00;22.00;12.75
65556;PMS3003;52200;53.490;14.376;2023-04-24T07:08:33;24.00;21.00;12.60
65556;PMS3003;52200;53.490;14.376;2023-04-24T07:10:58;23.00;18.00;12.00
65556;PMS3003;52200;53.490;14.376;2023-04-24T07:13:24;23.80;17.20;12.80
65556;PMS3003;52200;53.490;14.376;2023-04-24T07:15:51;22.00;18.00;13.00
65556;PMS3003;52200;53.490;14.376;2023-04-24T07:18:18;24.60;21.00;13.20
65556;PMS3003;52200;53.490;14.376;2023-04-24T07:20:44;21.60;17.00;11.00
65556;PMS3003;52200;53.490;14.376;2023-04-24T07:23:10;21.00;16.50;10.75
65556;PMS3003;52200;53.490;14.376;2023-04-24T07:25:35;22.00;19.00;11.00
65556;PMS3003;52200;53.490;14.376;2023-04-24T07:28:01;19.25;16.50;10.00
65556;PMS3003;52200;53.490;14.376;2023-04-24T07:30:26;25.00;22.00;13.00
65556;PMS3003;52200;53.490;14.376;2023-04-24T07:32:54;22.60;18.20;11.20
65556;PMS3003;52200;53.490;14.376;2023-04-24T07:35:20;22.40;16.80;11.40
65556;PMS3003;52200;53.490;14.376;2023-04-24T07:37:45;17.25;14.25;9.25
65556;PMS3003;52200;53.490;14.376;2023-04-24T07:40:13;23.00;19.00;12.00
65556;PMS3003;52200;53.490;14.376;2023-04-24T07:42:39;20.40;16.40;12.00
65556;PMS3003;52200;53.490;14.376;2023-04-24T07:45:05;20.80;16.40;10.00
65556;PMS3003;52200;53.490;14.376;2023-04-24T07:47:31;22.60;18.80;10.80
65556;PMS3003;52200;53.490;14.376;2023-04-24T07:49:57;21.00;16.20;10.20
65556;PMS3003;52200;53.490;14.376;2023-04-24T07:52:23;20.50;16.50;10.25
65556;PMS3003;52200;53.490;14.376;2023-04-24T07:54:49;23.40;17.60;11.00
65556;PMS3003;52200;53.490;14.376;2023-04-24T07:57:15;18.60;15.40;10.40
65556;PMS3003;52200;53.490;14.376;2023-04-24T07:59:41;20.40;16.60;10.60
65556;PMS3003;52200;53.490;14.376;2023-04-24T08:02:06;19.50;14.50;10.50
65556;PMS3003;52200;53.490;14.376;2023-04-24T08:04:32;19.50;15.25;9.50
65556;PMS3003;52200;53.490;14.376;2023-04-24T08:06:58;20.00;16.00;10.00
65556;PMS3003;52200;53.490;14.376;2023-04-24T08:09:23;19.25;15.25;9.75
65556;PMS3003;52200;53.490;14.376;2023-04-24T08:11:49;18.75;14.25;9.75
65556;PMS3003;52200;53.490;14.376;2023-04-24T08:14:14;19.00;15.50;9.00
65556;PMS3003;52200;53.490;14.376;2023-04-24T08:16:40;17.00;13.75;9.25
65556;PMS3003;52200;53.490;14.376;2023-04-24T08:19:06;16.00;12.00;8.75
65556;PMS3003;52200;53.490;14.376;2023-04-24T08:21:31;18.00;12.25;9.50
65556;PMS3003;52200;53.490;14.376;2023-04-24T08:23:57;16.00;12.00;8.00
65556;PMS3003;52200;53.490;14.376;2023-04-24T08:26:23;16.50;13.75;8.75
65556;PMS3003;52200;53.490;14.376;2023-04-24T08:28:48;20.00;16.25;10.75
65556;PMS3003;52200;53.490;14.376;2023-04-24T08:31:14;16.50;14.00;7.50
65556;PMS3003;52200;53.490;14.376;2023-04-24T08:33:40;18.25;14.50;8.25
65556;PMS3003;52200;53.490;14.376;2023-04-24T08:36:06;15.40;11.40;8.00
65556;PMS3003;52200;53.490;14.376;2023-04-24T08:38:32;15.60;12.00;8.20
65556;PMS3003;52200;53.490;14.376;2023-04-24T08:40:59;16.60;12.80;7.60
65556;PMS3003;52200;53.490;14.376;2023-04-24T08:43:26;15.20;13.20;8.00
65556;PMS3003;52200;53.490;14.376;2023-04-24T08:45:52;15.20;12.00;8.20
65556;PMS3003;52200;53.490;14.376;2023-04-24T08:48:20;15.60;12.80;7.40
65556;PMS3003;52200;53.490;14.376;2023-04-24T08:50:47;16.60;13.00;8.40
65556;PMS3003;52200;53.490;14.376;2023-04-24T08:53:16;14.60;12.40;8.00
65556;PMS3003;52200;53.490;14.376;2023-04-24T08:55:43;15.60;13.00;7.60
65556;PMS3003;52200;53.490;14.376;2023-04-24T08:58:13;14.40;11.20;6.20
65556;PMS3003;52200;53.490;14.376;2023-04-24T09:00:39;16.00;15.60;7.40
65556;PMS3003;52200;53.490;14.376;2023-04-24T09:03:05;17.20;15.80;9.20
65556;PMS3003;52200;53.490;14.376;2023-04-24T09:05:31;14.60;13.20;7.60
65556;PMS3003;52200;53.490;14.376;2023-04-24T09:07:57;18.40;15.60;8.60
65556;PMS3003;52200;53.490;14.376;2023-04-24T09:10:26;17.60;15.80;8.00
65556;PMS3003;52200;53.490;14.376;2023-04-24T09:12:55;14.80;12.60;6.00
65556;PMS3003;52200;53.490;14.376;2023-04-24T09:15:23;12.40;12.20;6.00
65556;PMS3003;52200;53.490;14.376;2023-04-24T09:17:49;12.00;10.80;5.00
65556;PMS3003;52200;53.490;14.376;2023-04-24T09:20:15;12.50;12.00;6.00
65556;PMS3003;52200;53.490;14.376;2023-04-24T09:22:41;12.00;11.00;4.00
65556;PMS3003;52200;53.490;14.376;2023-04-24T09:25:08;10.00;10.00;4.60
65556;PMS3003;52200;53.490;14.376;2023-04-24T09:27:36;11.60;11.60;7.00
65556;PMS3003;52200;53.490;14.376;2023-04-24T09:30:07;10.00;8.80;4.00
65556;PMS3003;52200;53.490;14.376;2023-04-24T09:32:33;8.80;7.40;4.00
65556;PMS3003;52200;53.490;14.376;2023-04-24T09:35:17;11.00;9.20;6.00
65556;PMS3003;52200;53.490;14.376;2023-04-24T09:37:43;11.80;8.80;5.40
65556;PMS3003;52200;53.490;14.376;2023-04-24T09:40:17;12.80;10.40;5.60
65556;PMS3003;52200;53.490;14.376;2023-04-24T09:42:45;12.40;11.00;5.60
65556;PMS3003;52200;53.490;14.376;2023-04-24T09:45:16;13.40;11.40;6.00
65556;PMS3003;52200;53.490;14.376;2023-04-24T09:47:41;10.75;9.75;5.00
65556;PMS3003;52200;53.490;14.376;2023-04-24T09:50:11;8.75;7.75;4.25
65556;PMS3003;52200;53.490;14.376;2023-04-24T09:52:41;12.20;11.60;5.60
65556;PMS3003;52200;53.490;14.376;2023-04-24T09:55:13;10.60;10.60;5.20
65556;PMS3003;52200;53.490;14.376;2023-04-24T09:58:14;9.80;9.80;4.60
65556;PMS3003;52200;53.490;14.376;2023-04-24T10:00:33;11.40;10.60;5.60
65556;PMS3003;52200;53.490;14.376;2023-04-24T10:05:26;8.40;7.80;3.00
65556;PMS3003;52200;53.490;14.376;2023-04-24T10:08:04;9.80;8.20;4.00
65556;PMS3003;52200;53.490;14.376;2023-04-24T10:10:37;8.80;7.80;3.00
65556;PMS3003;52200;53.490;14.376;2023-04-24T10:13:05;10.40;9.80;5.00
65556;PMS3003;52200;53.490;14.376;2023-04-24T10:15:32;10.00;10.00;4.80
65556;PMS3003;52200;53.490;14.376;2023-04-24T10:17:58;8.40;8.40;3.60
65556;PMS3003;52200;53.490;14.376;2023-04-24T10:20:25;9.00;9.00;3.00
65556;PMS3003;52200;53.490;14.376;2023-04-24T10:22:54;8.00;7.80;3.60
65556;PMS3003;52200;53.490;14.376;2023-04-24T10:25:22;7.40;7.40;2.00
65556;PMS3003;52200;53.490;14.376;2023-04-24T10:27:57;6.00;5.60;2.20
65556;PMS3003;52200;53.490;14.376;2023-04-24T10:30:27;5.80;5.80;2.00
65556;PMS3003;52200;53.490;14.376;2023-04-24T10:33:03;7.20;7.20;3.00
65556;PMS3003;52200;53.490;14.376;2023-04-24T10:35:30;5.40;5.00;2.00
65556;PMS3003;52200;53.490;14.376;2023-04-24T10:37:59;5.00;4.60;1.00
65556;PMS3003;52200;53.490;14.376;2023-04-24T10:40:39;5.00;4.80;1.00
65556;PMS3003;52200;53.490;14.376;2023-04-24T10:43:05;6.00;5.00;1.00
65556;PMS3003;52200;53.490;14.376;2023-04-24T10:45:33;4.00;4.00;1.00
65556;PMS3003;52200;53.490;14.376;2023-04-24T10:47:59;5.00;5.00;1.00
65556;PMS3003;52200;53.490;14.376;2023-04-24T10:50:27;6.00;5.80;1.00
65556;PMS3003;52200;53.490;14.376;2023-04-24T10:53:04;5.80;4.80;0.40
65556;PMS3003;52200;53.490;14.376;2023-04-24T10:58:13;4.20;4.00;1.00
65556;PMS3003;52200;53.490;14.376;2023-04-24T11:00:41;4.00;4.00;0.00
65556;PMS3003;52200;53.490;14.376;2023-04-24T11:03:24;3.00;3.00;0.00
65556;PMS3003;52200;53.490;14.376;2023-04-24T11:06:06;3.20;3.20;0.60
65556;PMS3003;52200;53.490;14.376;2023-04-24T11:08:42;4.60;4.00;0.00
65556;PMS3003;52200;53.490;14.376;2023-04-24T11:11:09;3.00;3.00;0.00
65556;PMS3003;52200;53.490;14.376;2023-04-24T11:16:30;3.20;3.20;0.00
65556;PMS3003;52200;53.490;14.376;2023-04-24T11:27:39;3.00;3.00;0.00
65556;PMS3003;52200;53.490;14.376;2023-04-24T11:35:05;3.40;3.40;0.00
65556;PMS3003;52200;53.490;14.376;2023-04-24T11:37:39;4.00;3.40;0.00
65556;PMS3003;52200;53.490;14.376;2023-04-24T11:40:07;5.00;5.00;0.20
65556;PMS3003;52200;53.490;14.376;2023-04-24T11:42:34;4.00;4.00;1.00
65556;PMS3003;52200;53.490;14.376;2023-04-24T11:45:07;6.60;5.60;0.20
65556;PMS3003;52200;53.490;14.376;2023-04-24T11:47:34;4.60;4.60;0.40
65556;PMS3003;52200;53.490;14.376;2023-04-24T11:50:00;6.25;6.25;2.50
65556;PMS3003;52200;53.490;14.376;2023-04-24T11:52:27;6.80;5.60;2.00
65556;PMS3003;52200;53.490;14.376;2023-04-24T11:54:53;7.00;5.00;3.00
65556;PMS3003;52200;53.490;14.376;2023-04-24T11:57:19;9.00;5.50;3.00
65556;PMS3003;52200;53.490;14.376;2023-04-24T11:59:45;7.00;3.80;2.00
65556;PMS3003;52200;53.490;14.376;2023-04-24T12:02:21;6.60;6.20;2.60
65556;PMS3003;52200;53.490;14.376;2023-04-24T12:04:51;7.00;6.40;3.40
65556;PMS3003;52200;53.490;14.376;2023-04-24T12:07:20;6.20;5.80;2.20
65556;PMS3003;52200;53.490;14.376;2023-04-24T12:09:48;5.60;4.60;1.00
65556;PMS3003;52200;53.490;14.376;2023-04-24T12:12:25;5.60;4.80;0.20
65556;PMS3003;52200;53.490;14.376;2023-04-24T12:14:55;5.40;4.80;0.80
65556;PMS3003;52200;53.490;14.376;2023-04-24T12:17:31;5.80;5.80;2.00
65556;PMS3003;52200;53.490;14.376;2023-04-24T12:19:59;5.20;5.20;2.00
65556;PMS3003;52200;53.490;14.376;2023-04-24T12:22:26;5.00;5.00;1.60
65556;PMS3003;52200;53.490;14.376;2023-04-24T12:24:59;6.25;5.00;1.00
65556;PMS3003;52200;53.490;14.376;2023-04-24T12:27:31;5.00;5.00;1.60
65556;PMS3003;52200;53.490;14.376;2023-04-24T12:29:58;5.40;5.00;1.20
65556;PMS3003;52200;53.490;14.376;2023-04-24T12:32:24;4.40;4.40;1.00
65556;PMS3003;52200;53.490;14.376;2023-04-24T12:34:51;3.00;3.00;0.00
65556;PMS3003;52200;53.490;14.376;2023-04-24T12:37:17;3.40;3.40;0.00
65556;PMS3003;52200;53.490;14.376;2023-04-24T12:40:02;4.75;3.75;0.50
65556;PMS3003;52200;53.490;14.376;2023-04-24T12:42:32;4.00;4.00;0.80
65556;PMS3003;52200;53.490;14.376;2023-04-24T12:45:05;5.00;4.00;0.60
65556;PMS3003;52200;53.490;14.376;2023-04-24T12:47:32;4.00;4.00;0.80
65556;PMS3003;52200;53.490;14.376;2023-04-24T12:49:58;3.60;3.60;0.20
65556;PMS3003;52200;53.490;14.376;2023-04-24T12:52:27;4.00;4.00;1.00
65556;PMS3003;52200;53.490;14.376;2023-04-24T12:54:54;3.00;3.00;1.00
65556;PMS3003;52200;53.490;14.376;2023-04-24T12:57:24;4.00;4.00;0.00
65556;PMS3003;52200;53.490;14.376;2023-04-24T12:59:51;5.00;4.60;1.00
65556;PMS3003;52200;53.490;14.376;2023-04-24T13:02:19;3.20;3.20;0.20
65556;PMS3003;52200;53.490;14.376;2023-04-24T13:04:45;3.50;3.50;0.00
65556;PMS3003;52200;53.490;14.376;2023-04-24T13:07:12;4.00;4.00;0.00
65556;PMS3003;52200;53.490;14.376;2023-04-24T13:09:41;3.00;3.00;0.00
65556;PMS3003;52200;53.490;14.376;2023-04-24T13:12:07;4.00;4.00;0.40
65556;PMS3003;52200;53.490;14.376;2023-04-24T13:14:33;4.60;4.00;0.00
65556;PMS3003;52200;53.490;14.376;2023-04-24T13:16:59;3.80;3.80;0.00
65556;PMS3003;52200;53.490;14.376;2023-04-24T13:19:25;4.00;4.00;0.00
65556;PMS3003;52200;53.490;14.376;2023-04-24T13:21:51;3.00;3.00;0.00
65556;PMS3003;52200;53.490;14.376;2023-04-24T13:24:17;4.00;3.00;0.40
65556;PMS3003;52200;53.490;14.376;2023-04-24T13:26:43;3.00;2.25;0.00
65556;PMS3003;52200;53.490;14.376;2023-04-24T13:29:09;2.00;2.00;0.00
65556;PMS3003;52200;53.490;14.376;2023-04-24T13:31:34;2.00;2.00;0.00
65556;PMS3003;52200;53.490;14.376;2023-04-24T13:34:02;1.00;1.00;0.00
65556;PMS3003;52200;53.490;14.376;2023-04-24T13:36:28;1.00;1.00;0.00
65556;PMS3003;52200;53.490;14.376;2023-04-24T13:38:54;2.00;2.00;0.00
65556;PMS3003;52200;53.490;14.376;2023-04-24T13:41:21;2.80;2.80;0.00
65556;PMS3003;52200;53.490;14.376;2023-04-24T13:43:46;1.25;1.25;0.00
65556;PMS3003;52200;53.490;14.376;2023-04-24T13:46:12;2.00;2.00;0.00
65556;PMS3003;52200;53.490;14.376;2023-04-24T13:48:37;2.50;2.50;0.00
65556;PMS3003;52200;53.490;14.376;2023-04-24T13:51:03;1.00;1.00;0.00
65556;PMS3003;52200;53.490;14.376;2023-04-24T13:53:30;3.00;2.00;0.00
65556;PMS3003;52200;53.490;14.376;2023-04-24T13:55:55;1.00;1.00;0.00
65556;PMS3003;52200;53.490;14.376;2023-04-24T13:58:20;1.00;1.00;0.00
65556;PMS3003;52200;53.490;14.376;2023-04-24T14:00:46;2.50;2.25;0.00
65556;PMS3003;52200;53.490;14.376;2023-04-24T14:03:11;1.50;1.50;0.00
65556;PMS3003;52200;53.490;14.376;2023-04-24T14:05:37;2.75;2.25;0.00